sensor_id;sensor_type;location;lat;lon;timestamp;pressure;altitude;pressure_sealevel;temperature;humidity
76024;BME280;64719;52.124;6.226;2023-07-20T00:02:24;101543.00;;;15.77;100.00
76024;BME280;64719;52.124;6.226;2023-07-20T00:04:50;101539.75;;;15.80;100.00
76024;BME280;64719;52.124;6.226;2023-07-20T00:07:17;101540.59;;;15.80;100.00
76024;BME280;64719;52.124;6.226;2023-07-20T00:09:43;101541.84;;;15.89;100.00
76024;BME280;64719;52.124;6.226;2023-07-20T00:12:10;101544.91;;;15.93;100.00
76024;BME280;64719;52.124;6.226;2023-07-20T00:14:36;101541.09;;;15.94;100.00
76024;BME280;64719;52.124;6.226;2023-07-20T00:17:05;101546.22;;;15.90;100.00
76024;BME280;64719;52.124;6.226;2023-07-20T00:19:31;101544.66;;;15.94;100.00
76024;BME280;64719;52.124;6.226;2023-07-20T00:21:58;101551.44;;;15.92;100.00
76024;BME280;64719;52.124;6.226;2023-07-20T00:24:25;101545.66;;;15.88;100.00
76024;BME280;64719;52.124;6.226;2023-07-20T00:26:52;101542.94;;;15.88;100.00
76024;BME280;64719;52.124;6.226;2023-07-20T00:29:19;101548.97;;;15.90;100.00
76024;BME280;64719;52.124;6.226;2023-07-20T00:31:45;101546.47;;;15.89;100.00
76024;BME280;64719;52.124;6.226;2023-07-20T00:34:13;101550.06;;;15.89;100.00
76024;BME280;64719;52.124;6.226;2023-07-20T00:36:40;101547.41;;;15.78;100.00
76024;BME280;64719;52.124;6.226;2023-07-20T00:39:06;101543.59;;;15.79;100.00
76024;BME280;64719;52.124;6.226;2023-07-20T00:41:33;101540.94;;;15.67;100.00
76024;BME280;64719;52.124;6.226;2023-07-20T00:44:00;101538.50;;;15.71;100.00
76024;BME280;64719;52.124;6.226;2023-07-20T00:46:26;101533.53;;;15.68;100.00
76024;BME280;64719;52.124;6.226;2023-07-20T00:48:53;101542.59;;;15.68;100.00
76024;BME280;64719;52.124;6.226;2023-07-20T00:51:22;101539.94;;;15.57;100.00
76024;BME280;64719;52.124;6.226;2023-07-20T00:53:49;101530.97;;;15.45;100.00
76024;BME280;64719;52.124;6.226;2023-07-20T00:56:16;101539.31;;;15.38;100.00
76024;BME280;64719;52.124;6.226;2023-07-20T00:58:43;101539.53;;;15.37;100.00
76024;BME280;64719;52.124;6.226;2023-07-20T01:01:10;101536.47;;;15.33;100.00
76024;BME280;64719;52.124;6.226;2023-07-20T01:03:37;101538.50;;;15.38;100.00
76024;BME280;64719;52.124;6.226;2023-07-20T01:06:11;101534.22;;;15.30;100.00
76024;BME280;64719;52.124;6.226;2023-07-20T01:08:47;101536.09;;;15.30;100.00
76024;BME280;64719;52.124;6.226;2023-07-20T01:11:23;101537.41;;;15.39;100.00
76024;BME280;64719;52.124;6.226;2023-07-20T01:13:55;101536.22;;;15.35;100.00
76024;BME280;64719;52.124;6.226;2023-07-20T01:16:21;101537.06;;;15.35;100.00
76024;BME280;64719;52.124;6.226;2023-07-20T01:18:48;101532.38;;;15.36;100.00
76024;BME280;64719;52.124;6.226;2023-07-20T01:21:19;101541.69;;;15.35;100.00
76024;BME280;64719;52.124;6.226;2023-07-20T01:24:08;101537.84;;;15.36;100.00
76024;BME280;64719;52.124;6.226;2023-07-20T01:27:00;101544.66;;;15.33;100.00
76024;BME280;64719;52.124;6.226;2023-07-20T01:29:50;101547.66;;;15.32;100.00
76024;BME280;64719;52.124;6.226;2023-07-20T01:32:23;101549.53;;;15.31;100.00
76024;BME280;64719;52.124;6.226;2023-07-20T01:34:52;101544.41;;;15.35;100.00
76024;BME280;64719;52.124;6.226;2023-07-20T01:37:20;101541.44;;;15.36;100.00
76024;BME280;64719;52.124;6.226;2023-07-20T01:39:52;101553.13;;;15.32;100.00
76024;BME280;64719;52.124;6.226;2023-07-20T01:42:21;101550.88;;;15.29;100.00
76024;BME280;64719;52.124;6.226;2023-07-20T01:44:50;101552.19;;;15.26;100.00
76024;BME280;64719;52.124;6.226;2023-07-20T01:47:16;101552.34;;;15.20;100.00
76024;BME280;64719;52.124;6.226;2023-07-20T01:49:44;101558.06;;;15.18;100.00
76024;BME280;64719;52.124;6.226;2023-07-20T01:52:11;101548.81;;;15.08;100.00
76024;BME280;64719;52.124;6.226;2023-07-20T01:54:37;101553.25;;;14.97;100.00
76024;BME280;64719;52.124;6.226;2023-07-20T01:57:04;101548.91;;;14.85;100.00
76024;BME280;64719;52.124;6.226;2023-07-20T01:59:31;101552.03;;;14.77;100.00
76024;BME280;64719;52.124;6.226;2023-07-20T02:01:58;101550.50;;;14.69;100.00
76024;BME280;64719;52.124;6.226;2023-07-20T02:04:24;101547.53;;;14.71;100.00
76024;BME280;64719;52.124;6.226;2023-07-20T02:06:52;101548.69;;;14.75;100.00
76024;BME280;64719;52.124;6.226;2023-07-20T02:09:19;101546.81;;;14.75;100.00
76024;BME280;64719;52.124;6.226;2023-07-20T02:11:46;101546.44;;;14.72;100.00
76024;BME280;64719;52.124;6.226;2023-07-20T02:14:12;101544.69;;;14.65;100.00
76024;BME280;64719;52.124;6.226;2023-07-20T02:16:39;101542.19;;;14.64;100.00
76024;BME280;64719;52.124;6.226;2023-07-20T02:19:05;101550.16;;;14.65;100.00
76024;BME280;64719;52.124;6.226;2023-07-20T02:21:32;101556.47;;;14.66;100.00
76024;BME280;64719;52.124;6.226;2023-07-20T02:24:00;101555.72;;;14.71;100.00
76024;BME280;64719;52.124;6.226;2023-07-20T02:26:26;101553.09;;;14.76;100.00
76024;BME280;64719;52.124;6.226;2023-07-20T02:28:53;101558.91;;;14.79;100.00
76024;BME280;64719;52.124;6.226;2023-07-20T02:31:20;101561.16;;;14.82;100.00
76024;BME280;64719;52.124;6.226;2023-07-20T02:33:46;101560.91;;;14.84;100.00
76024;BME280;64719;52.124;6.226;2023-07-20T02:36:13;101565.41;;;14.90;100.00
76024;BME280;64719;52.124;6.226;2023-07-20T02:38:39;101559.47;;;14.93;100.00
76024;BME280;64719;52.124;6.226;2023-07-20T02:41:07;101559.59;;;14.86;100.00
76024;BME280;64719;52.124;6.226;2023-07-20T02:43:34;101560.00;;;14.78;100.00
76024;BME280;64719;52.124;6.226;2023-07-20T02:46:00;101553.81;;;14.71;100.00
76024;BME280;64719;52.124;6.226;2023-07-20T02:48:27;101555.75;;;14.59;100.00
76024;BME280;64719;52.124;6.226;2023-07-20T02:50:53;101561.00;;;14.49;100.00
76024;BME280;64719;52.124;6.226;2023-07-20T02:53:20;101563.75;;;14.37;100.00
76024;BME280;64719;52.124;6.226;2023-07-20T02:55:47;101567.91;;;14.28;100.00
76024;BME280;64719;52.124;6.226;2023-07-20T02:58:15;101566.09;;;14.22;100.00
76024;BME280;64719;52.124;6.226;2023-07-20T03:00:42;101564.56;;;14.26;100.00
76024;BME280;64719;52.124;6.226;2023-07-20T03:03:09;101573.38;;;14.28;100.00
76024;BME280;64719;52.124;6.226;2023-07-20T03:05:35;101575.03;;;14.29;100.00
76024;BME280;64719;52.124;6.226;2023-07-20T03:08:04;101566.22;;;14.27;100.00
76024;BME280;64719;52.124;6.226;2023-07-20T03:10:31;101572.16;;;14.24;100.00
76024;BME280;64719;52.124;6.226;2023-07-20T03:12:58;101578.72;;;14.23;100.00
76024;BME280;64719;52.124;6.226;2023-07-20T03:15:26;101586.41;;;14.15;100.00
76024;BME280;64719;52.124;6.226;2023-07-20T03:17:53;101588.88;;;14.05;100.00
76024;BME280;64719;52.124;6.226;2023-07-20T03:20:19;101584.59;;;13.97;100.00
76024;BME280;64719;52.124;6.226;2023-07-20T03:22:46;101587.66;;;13.78;100.00
76024;BME280;64719;52.124;6.226;2023-07-20T03:25:12;101592.38;;;13.71;100.00
76024;BME280;64719;52.124;6.226;2023-07-20T03:27:39;101602.06;;;13.67;100.00
76024;BME280;64719;52.124;6.226;2023-07-20T03:30:07;101597.47;;;13.67;100.00
76024;BME280;64719;52.124;6.226;2023-07-20T03:32:36;101604.41;;;13.52;100.00
76024;BME280;64719;52.124;6.226;2023-07-20T03:35:03;101595.19;;;13.53;100.00
76024;BME280;64719;52.124;6.226;2023-07-20T03:37:30;101600.41;;;13.54;100.00
76024;BME280;64719;52.124;6.226;2023-07-20T03:39:56;101599.66;;;13.47;100.00
76024;BME280;64719;52.124;6.226;2023-07-20T03:42:23;101605.78;;;13.43;100.00
76024;BME280;64719;52.124;6.226;2023-07-20T03:44:49;101608.06;;;13.46;100.00
76024;BME280;64719;52.124;6.226;2023-07-20T03:47:16;101606.88;;;13.42;100.00
76024;BME280;64719;52.124;6.226;2023-07-20T03:49:44;101610.56;;;13.47;100.00
76024;BME280;64719;52.124;6.226;2023-07-20T03:52:10;101607.25;;;13.45;100.00
76024;BME280;64719;52.124;6.226;2023-07-20T03:54:37;101607.25;;;13.45;100.00
76024;BME280;64719;52.124;6.226;2023-07-20T03:57:04;101602.59;;;13.46;100.00
76024;BME280;64719;52.124;6.226;2023-07-20T03:59:31;101602.03;;;13.44;100.00
76024;BME280;64719;52.124;6.226;2023-07-20T04:01:58;101603.31;;;13.41;100.00
76024;BME280;64719;52.124;6.226;2023-07-20T04:04:25;101603.75;;;13.38;100.00
76024;BME280;64719;52.124;6.226;2023-07-20T04:06:53;101606.50;;;13.38;100.00
76024;BME280;64719;52.124;6.226;2023-07-20T04:09:20;101601.38;;;13.30;100.00
76024;BME280;64719;52.124;6.226;2023-07-20T04:11:46;101609.56;;;13.30;100.00
76024;BME280;64719;52.124;6.226;2023-07-20T04:14:13;101612.41;;;13.35;100.00
76024;BME280;64719;52.124;6.226;2023-07-20T04:16:39;101614.78;;;13.32;100.00
76024;BME280;64719;52.124;6.226;2023-07-20T04:19:06;101617.63;;;13.37;100.00
76024;BME280;64719;52.124;6.226;2023-07-20T04:21:39;101608.19;;;13.39;100.00
76024;BME280;64719;52.124;6.226;2023-07-20T04:24:08;101612.78;;;13.39;100.00
76024;BME280;64719;52.124;6.226;2023-07-20T04:26:35;101616.47;;;13.44;100.00
76024;BME280;64719;52.124;6.226;2023-07-20T04:29:02;101617.47;;;13.50;100.00
76024;BME280;64719;52.124;6.226;2023-07-20T04:31:28;101627.56;;;13.61;100.00
76024;BME280;64719;52.124;6.226;2023-07-20T04:33:57;101627.50;;;13.79;100.00
76024;BME280;64719;52.124;6.226;2023-07-20T04:36:24;101626.34;;;13.98;100.00
76024;BME280;64719;52.124;6.226;2023-07-20T04:38:50;101631.13;;;14.83;100.00
76024;BME280;64719;52.124;6.226;2023-07-20T04:41:18;101622.81;;;16.90;100.00
76024;BME280;64719;52.124;6.226;2023-07-20T04:43:46;101604.75;;;18.27;100.00
76024;BME280;64719;52.124;6.226;2023-07-20T04:46:12;101603.00;;;18.47;100.00
76024;BME280;64719;52.124;6.226;2023-07-20T04:48:39;101601.34;;;19.94;100.00
76024;BME280;64719;52.124;6.226;2023-07-20T04:51:06;101595.84;;;19.94;100.00
76024;BME280;64719;52.124;6.226;2023-07-20T04:53:33;101599.66;;;19.78;100.00
76024;BME280;64719;52.124;6.226;2023-07-20T04:55:59;101600.28;;;19.04;100.00
76024;BME280;64719;52.124;6.226;2023-07-20T04:58:27;101606.13;;;19.22;100.00
76024;BME280;64719;52.124;6.226;2023-07-20T05:00:54;101598.81;;;19.48;100.00
76024;BME280;64719;52.124;6.226;2023-07-20T05:03:20;101593.84;;;20.70;100.00
76024;BME280;64719;52.124;6.226;2023-07-20T05:05:47;101599.59;;;20.84;100.00
76024;BME280;64719;52.124;6.226;2023-07-20T05:08:14;101601.72;;;21.60;100.00
76024;BME280;64719;52.124;6.226;2023-07-20T05:10:41;101603.00;;;22.40;100.00
76024;BME280;64719;52.124;6.226;2023-07-20T05:13:08;101610.84;;;21.02;100.00
76024;BME280;64719;52.124;6.226;2023-07-20T05:15:36;101604.66;;;22.70;100.00
76024;BME280;64719;52.124;6.226;2023-07-20T05:18:02;101607.88;;;23.48;100.00
76024;BME280;64719;52.124;6.226;2023-07-20T05:20:29;101605.75;;;23.95;100.00
76024;BME280;64719;52.124;6.226;2023-07-20T05:22:56;101607.84;;;23.85;100.00
76024;BME280;64719;52.124;6.226;2023-07-20T05:25:23;101611.31;;;23.95;100.00
76024;BME280;64719;52.124;6.226;2023-07-20T05:27:50;101605.72;;;23.63;100.00
76024;BME280;64719;52.124;6.226;2023-07-20T05:30:16;101609.94;;;24.43;100.00
76024;BME280;64719;52.124;6.226;2023-07-20T05:32:45;101605.16;;;23.80;100.00
76024;BME280;64719;52.124;6.226;2023-07-20T05:35:16;101611.88;;;24.88;100.00
76024;BME280;64719;52.124;6.226;2023-07-20T05:37:43;101609.13;;;24.43;100.00
76024;BME280;64719;52.124;6.226;2023-07-20T05:40:10;101618.53;;;24.74;96.00
76024;BME280;64719;52.124;6.226;2023-07-20T05:42:37;101614.34;;;24.44;95.87
76024;BME280;64719;52.124;6.226;2023-07-20T05:45:05;101618.66;;;24.69;100.00
76024;BME280;64719;52.124;6.226;2023-07-20T05:47:31;101630.94;;;25.71;91.06
76024;BME280;64719;52.124;6.226;2023-07-20T05:49:59;101622.28;;;25.95;89.51
76024;BME280;64719;52.124;6.226;2023-07-20T05:52:26;101630.69;;;25.81;89.39
76024;BME280;64719;52.124;6.226;2023-07-20T05:54:52;101630.78;;;26.34;84.15
76024;BME280;64719;52.124;6.226;2023-07-20T05:57:19;101630.97;;;26.90;81.72
76024;BME280;64719;52.124;6.226;2023-07-20T05:59:46;101628.53;;;25.78;87.66
76024;BME280;64719;52.124;6.226;2023-07-20T06:02:12;101632.09;;;26.58;80.81
76024;BME280;64719;52.124;6.226;2023-07-20T06:04:39;101627.91;;;25.81;79.65
76024;BME280;64719;52.124;6.226;2023-07-20T06:07:07;101631.22;;;24.48;90.72
76024;BME280;64719;52.124;6.226;2023-07-20T06:09:34;101630.16;;;25.30;85.98
76024;BME280;64719;52.124;6.226;2023-07-20T06:12:01;101633.25;;;25.91;84.89
76024;BME280;64719;52.124;6.226;2023-07-20T06:14:27;101636.66;;;24.53;92.16
76024;BME280;64719;52.124;6.226;2023-07-20T06:16:54;101633.84;;;27.16;79.00
76024;BME280;64719;52.124;6.226;2023-07-20T06:19:20;101637.16;;;26.78;75.27
76024;BME280;64719;52.124;6.226;2023-07-20T06:21:48;101639.38;;;27.55;64.88
76024;BME280;64719;52.124;6.226;2023-07-20T06:24:17;101641.75;;;27.87;68.33
76024;BME280;64719;52.124;6.226;2023-07-20T06:26:44;101644.31;;;28.43;61.52
76024;BME280;64719;52.124;6.226;2023-07-20T06:29:10;101648.78;;;28.01;57.94
76024;BME280;64719;52.124;6.226;2023-07-20T06:31:37;101641.41;;;27.88;58.05
76024;BME280;64719;52.124;6.226;2023-07-20T06:34:04;101638.78;;;28.17;61.46
76024;BME280;64719;52.124;6.226;2023-07-20T06:36:30;101643.91;;;28.79;56.32
76024;BME280;64719;52.124;6.226;2023-07-20T06:38:57;101652.22;;;27.81;50.00
76024;BME280;64719;52.124;6.226;2023-07-20T06:41:25;101640.22;;;27.55;55.82
76024;BME280;64719;52.124;6.226;2023-07-20T06:43:51;101644.78;;;26.42;63.81
76024;BME280;64719;52.124;6.226;2023-07-20T06:46:23;101646.44;;;27.52;55.08
76024;BME280;64719;52.124;6.226;2023-07-20T06:48:50;101649.06;;;27.01;58.02
76024;BME280;64719;52.124;6.226;2023-07-20T06:51:16;101643.47;;;27.49;54.19
76024;BME280;64719;52.124;6.226;2023-07-20T06:53:43;101656.81;;;28.37;55.68
76024;BME280;64719;52.124;6.226;2023-07-20T06:56:09;101651.72;;;27.79;53.04
76024;BME280;64719;52.124;6.226;2023-07-20T06:58:38;101653.72;;;25.60;65.68
76024;BME280;64719;52.124;6.226;2023-07-20T07:01:05;101656.50;;;28.47;54.51
76024;BME280;64719;52.124;6.226;2023-07-20T07:03:32;101661.03;;;25.29;58.88
76024;BME280;64719;52.124;6.226;2023-07-20T07:05:58;101661.28;;;26.92;51.94
76024;BME280;64719;52.124;6.226;2023-07-20T07:08:25;101659.22;;;26.66;56.23
76024;BME280;64719;52.124;6.226;2023-07-20T07:10:52;101663.34;;;28.75;49.25
76024;BME280;64719;52.124;6.226;2023-07-20T07:13:19;101649.59;;;29.08;47.89
76024;BME280;64719;52.124;6.226;2023-07-20T07:15:47;101643.75;;;28.84;45.18
76024;BME280;64719;52.124;6.226;2023-07-20T07:18:13;101646.94;;;27.63;50.75
76024;BME280;64719;52.124;6.226;2023-07-20T07:20:40;101649.63;;;28.19;47.47
76024;BME280;64719;52.124;6.226;2023-07-20T07:23:06;101648.38;;;28.71;47.35
76024;BME280;64719;52.124;6.226;2023-07-20T07:25:33;101648.53;;;29.79;45.67
76024;BME280;64719;52.124;6.226;2023-07-20T07:28:00;101653.34;;;30.11;40.12
76024;BME280;64719;52.124;6.226;2023-07-20T07:30:26;101656.06;;;30.40;38.15
76024;BME280;64719;52.124;6.226;2023-07-20T07:32:54;101661.88;;;27.67;43.26
76024;BME280;64719;52.124;6.226;2023-07-20T07:35:21;101671.25;;;27.23;50.09
76024;BME280;64719;52.124;6.226;2023-07-20T07:37:47;101673.41;;;28.42;44.92
76024;BME280;64719;52.124;6.226;2023-07-20T07:40:14;101675.50;;;26.82;47.31
76024;BME280;64719;52.124;6.226;2023-07-20T07:42:41;101676.31;;;29.55;43.84
76024;BME280;64719;52.124;6.226;2023-07-20T07:45:08;101681.38;;;29.32;40.82
76024;BME280;64719;52.124;6.226;2023-07-20T07:47:35;101679.00;;;30.54;39.26
76024;BME280;64719;52.124;6.226;2023-07-20T07:50:03;101678.19;;;30.66;37.06
76024;BME280;64719;52.124;6.226;2023-07-20T07:52:30;101676.69;;;28.61;40.77
76024;BME280;64719;52.124;6.226;2023-07-20T07:54:57;101676.03;;;29.97;44.10
76024;BME280;64719;52.124;6.226;2023-07-20T07:57:25;101679.66;;;28.30;44.59
76024;BME280;64719;52.124;6.226;2023-07-20T07:59:52;101680.50;;;28.05;47.54
76024;BME280;64719;52.124;6.226;2023-07-20T08:02:18;101678.44;;;30.61;41.43
76024;BME280;64719;52.124;6.226;2023-07-20T08:04:45;101683.63;;;29.39;44.56
76024;BME280;64719;52.124;6.226;2023-07-20T08:07:13;101682.16;;;27.33;46.37
76024;BME280;64719;52.124;6.226;2023-07-20T08:09:39;101689.59;;;26.85;47.05
76024;BME280;64719;52.124;6.226;2023-07-20T08:12:06;101676.78;;;25.60;50.81
76024;BME280;64719;52.124;6.226;2023-07-20T08:14:33;101685.34;;;23.76;68.99
76024;BME280;64719;52.124;6.226;2023-07-20T08:17:00;101684.25;;;23.06;70.47
76024;BME280;64719;52.124;6.226;2023-07-20T08:19:27;101685.25;;;26.04;51.38
76024;BME280;64719;52.124;6.226;2023-07-20T08:21:53;101681.00;;;23.28;69.68
76024;BME280;64719;52.124;6.226;2023-07-20T08:24:21;101684.53;;;22.81;70.97
76024;BME280;64719;52.124;6.226;2023-07-20T08:26:48;101687.91;;;21.57;77.46
76024;BME280;64719;52.124;6.226;2023-07-20T08:29:14;101695.34;;;21.62;80.78
76024;BME280;64719;52.124;6.226;2023-07-20T08:31:41;101683.75;;;26.20;53.39
76024;BME280;64719;52.124;6.226;2023-07-20T08:34:08;101685.75;;;28.32;43.53
76024;BME280;64719;52.124;6.226;2023-07-20T08:36:34;101681.81;;;29.43;44.78
76024;BME280;64719;52.124;6.226;2023-07-20T08:39:01;101687.91;;;29.74;41.29
76024;BME280;64719;52.124;6.226;2023-07-20T08:41:30;101685.34;;;31.20;36.93
76024;BME280;64719;52.124;6.226;2023-07-20T08:43:57;101687.22;;;30.71;38.33
76024;BME280;64719;52.124;6.226;2023-07-20T08:46:26;101684.28;;;29.94;37.33
76024;BME280;64719;52.124;6.226;2023-07-20T08:48:54;101689.06;;;29.73;37.75
76024;BME280;64719;52.124;6.226;2023-07-20T08:51:21;101684.28;;;30.88;37.98
76024;BME280;64719;52.124;6.226;2023-07-20T08:53:49;101687.34;;;30.42;36.61
76024;BME280;64719;52.124;6.226;2023-07-20T08:56:18;101683.88;;;29.83;38.22
76024;BME280;64719;52.124;6.226;2023-07-20T08:58:47;101687.38;;;28.51;37.00
76024;BME280;64719;52.124;6.226;2023-07-20T09:01:14;101686.22;;;30.23;35.27
76024;BME280;64719;52.124;6.226;2023-07-20T09:03:41;101692.06;;;30.09;34.76
76024;BME280;64719;52.124;6.226;2023-07-20T09:06:11;101681.47;;;29.44;36.22
76024;BME280;64719;52.124;6.226;2023-07-20T09:08:38;101688.78;;;28.82;35.00
76024;BME280;64719;52.124;6.226;2023-07-20T09:11:05;101688.88;;;29.98;35.18
76024;BME280;64719;52.124;6.226;2023-07-20T09:13:32;101682.72;;;30.79;34.06
76024;BME280;64719;52.124;6.226;2023-07-20T09:16:00;101683.16;;;31.49;33.42
76024;BME280;64719;52.124;6.226;2023-07-20T09:18:29;101675.59;;;31.90;31.83
76024;BME280;64719;52.124;6.226;2023-07-20T09:21:01;101672.81;;;31.90;30.45
76024;BME280;64719;52.124;6.226;2023-07-20T09:23:32;101677.63;;;31.89;31.52
76024;BME280;64719;52.124;6.226;2023-07-20T09:25:59;101680.88;;;31.07;33.83
76024;BME280;64719;52.124;6.226;2023-07-20T09:28:26;101670.59;;;31.95;29.95
76024;BME280;64719;52.124;6.226;2023-07-20T09:30:55;101669.19;;;31.77;31.36
76024;BME280;64719;52.124;6.226;2023-07-20T09:33:25;101675.16;;;31.88;31.70
76024;BME280;64719;52.124;6.226;2023-07-20T09:35:51;101676.16;;;31.31;30.78
76024;BME280;64719;52.124;6.226;2023-07-20T09:38:18;101672.13;;;32.75;29.82
76024;BME280;64719;52.124;6.226;2023-07-20T09:40:45;101675.63;;;30.61;33.02
76024;BME280;64719;52.124;6.226;2023-07-20T09:43:11;101673.28;;;30.63;32.32
76024;BME280;64719;52.124;6.226;2023-07-20T09:45:39;101666.84;;;31.91;29.84
76024;BME280;64719;52.124;6.226;2023-07-20T09:48:07;101667.06;;;27.43;34.25
76024;BME280;64719;52.124;6.226;2023-07-20T09:50:39;101665.44;;;27.33;37.86
76024;BME280;64719;52.124;6.226;2023-07-20T09:53:07;101665.34;;;28.32;34.72
76024;BME280;64719;52.124;6.226;2023-07-20T09:55:36;101670.72;;;29.84;35.40
76024;BME280;64719;52.124;6.226;2023-07-20T09:58:03;101663.88;;;31.36;31.96
76024;BME280;64719;52.124;6.226;2023-07-20T10:00:32;101667.91;;;31.26;30.72
76024;BME280;64719;52.124;6.226;2023-07-20T10:03:03;101660.81;;;31.17;30.51
76024;BME280;64719;52.124;6.226;2023-07-20T10:05:32;101658.81;;;31.53;32.13
76024;BME280;64719;52.124;6.226;2023-07-20T10:08:02;101656.34;;;31.64;30.10
76024;BME280;64719;52.124;6.226;2023-07-20T10:10:33;101661.91;;;29.73;33.54
76024;BME280;64719;52.124;6.226;2023-07-20T10:13:00;101647.34;;;30.54;32.52
76024;BME280;64719;52.124;6.226;2023-07-20T10:15:30;101638.72;;;31.39;33.84
76024;BME280;64719;52.124;6.226;2023-07-20T10:18:02;101646.59;;;30.12;33.06
76024;BME280;64719;52.124;6.226;2023-07-20T10:20:32;101644.69;;;32.57;31.00
76024;BME280;64719;52.124;6.226;2023-07-20T10:23:00;101643.16;;;32.44;30.72
76024;BME280;64719;52.124;6.226;2023-07-20T10:25:28;101643.19;;;33.06;29.69
76024;BME280;64719;52.124;6.226;2023-07-20T10:27:55;101638.75;;;33.20;29.96
76024;BME280;64719;52.124;6.226;2023-07-20T10:30:24;101632.78;;;31.93;30.02
76024;BME280;64719;52.124;6.226;2023-07-20T10:32:52;101637.13;;;32.88;29.25
76024;BME280;64719;52.124;6.226;2023-07-20T10:35:19;101642.03;;;31.93;30.44
76024;BME280;64719;52.124;6.226;2023-07-20T10:37:47;101638.31;;;31.77;31.71
76024;BME280;64719;52.124;6.226;2023-07-20T10:40:26;101639.31;;;33.61;29.91
76024;BME280;64719;52.124;6.226;2023-07-20T10:43:00;101629.34;;;31.47;29.48
76024;BME280;64719;52.124;6.226;2023-07-20T10:45:37;101639.72;;;28.38;36.69
76024;BME280;64719;52.124;6.226;2023-07-20T10:48:06;101634.34;;;32.18;33.00
76024;BME280;64719;52.124;6.226;2023-07-20T10:50:33;101631.47;;;28.59;36.65
76024;BME280;64719;52.124;6.226;2023-07-20T10:53:17;101633.88;;;30.14;35.77
76024;BME280;64719;52.124;6.226;2023-07-20T10:55:45;101634.78;;;28.61;36.67
76024;BME280;64719;52.124;6.226;2023-07-20T10:58:16;101630.44;;;29.76;34.78
76024;BME280;64719;52.124;6.226;2023-07-20T11:00:56;101615.31;;;31.47;32.52
76024;BME280;64719;52.124;6.226;2023-07-20T11:03:29;101618.97;;;28.65;36.62
76024;BME280;64719;52.124;6.226;2023-07-20T11:05:57;101619.53;;;27.73;39.50
76024;BME280;64719;52.124;6.226;2023-07-20T11:08:39;101621.88;;;26.45;43.51
76024;BME280;64719;52.124;6.226;2023-07-20T11:11:22;101623.19;;;25.33;43.99
76024;BME280;64719;52.124;6.226;2023-07-20T11:13:59;101621.28;;;25.69;46.56
76024;BME280;64719;52.124;6.226;2023-07-20T11:16:37;101621.59;;;26.03;45.89
76024;BME280;64719;52.124;6.226;2023-07-20T11:19:05;101628.69;;;25.95;45.23
76024;BME280;64719;52.124;6.226;2023-07-20T11:21:36;101627.19;;;24.99;48.00
76024;BME280;64719;52.124;6.226;2023-07-20T11:24:05;101630.53;;;25.64;47.40
76024;BME280;64719;52.124;6.226;2023-07-20T11:26:42;101621.97;;;25.74;47.96
76024;BME280;64719;52.124;6.226;2023-07-20T11:29:09;101624.28;;;27.00;45.63
76024;BME280;64719;52.124;6.226;2023-07-20T11:31:37;101611.22;;;26.69;43.28
76024;BME280;64719;52.124;6.226;2023-07-20T11:34:04;101615.84;;;26.21;45.87
76024;BME280;64719;52.124;6.226;2023-07-20T11:36:31;101610.59;;;26.72;43.41
76024;BME280;64719;52.124;6.226;2023-07-20T11:39:00;101603.00;;;26.12;45.08
76024;BME280;64719;52.124;6.226;2023-07-20T11:41:30;101608.13;;;26.18;43.38
76024;BME280;64719;52.124;6.226;2023-07-20T11:43:58;101603.16;;;25.58;46.19
76024;BME280;64719;52.124;6.226;2023-07-20T11:46:25;101597.84;;;26.80;46.42
76024;BME280;64719;52.124;6.226;2023-07-20T11:48:56;101598.91;;;27.91;41.69
76024;BME280;64719;52.124;6.226;2023-07-20T11:51:24;101594.81;;;27.16;43.07
76024;BME280;64719;52.124;6.226;2023-07-20T11:53:50;101595.09;;;28.21;41.46
76024;BME280;64719;52.124;6.226;2023-07-20T11:56:17;101600.19;;;27.51;42.71
76024;BME280;64719;52.124;6.226;2023-07-20T11:58:44;101585.81;;;27.10;41.21
76024;BME280;64719;52.124;6.226;2023-07-20T12:01:13;101596.97;;;25.61;44.82
76024;BME280;64719;52.124;6.226;2023-07-20T12:03:41;101596.56;;;25.67;49.04
76024;BME280;64719;52.124;6.226;2023-07-20T12:06:08;101583.91;;;24.39;51.63
76024;BME280;64719;52.124;6.226;2023-07-20T12:08:38;101596.78;;;24.49;53.36
76024;BME280;64719;52.124;6.226;2023-07-20T12:11:05;101593.00;;;24.45;53.22
76024;BME280;64719;52.124;6.226;2023-07-20T12:13:38;101585.59;;;23.90;54.19
76024;BME280;64719;52.124;6.226;2023-07-20T12:16:09;101588.44;;;23.85;57.20
76024;BME280;64719;52.124;6.226;2023-07-20T12:18:38;101584.44;;;23.40;57.75
76024;BME280;64719;52.124;6.226;2023-07-20T12:21:06;101593.66;;;23.12;56.96
76024;BME280;64719;52.124;6.226;2023-07-20T12:23:35;101584.56;;;22.59;61.15
76024;BME280;64719;52.124;6.226;2023-07-20T12:26:06;101584.53;;;22.36;65.28
76024;BME280;64719;52.124;6.226;2023-07-20T12:28:33;101587.72;;;22.48;66.62
76024;BME280;64719;52.124;6.226;2023-07-20T12:31:02;101588.09;;;23.35;66.22
76024;BME280;64719;52.124;6.226;2023-07-20T12:33:28;101581.50;;;24.19;60.43
76024;BME280;64719;52.124;6.226;2023-07-20T12:35:56;101585.28;;;23.91;56.27
76024;BME280;64719;52.124;6.226;2023-07-20T12:38:24;101580.19;;;23.98;56.06
76024;BME280;64719;52.124;6.226;2023-07-20T12:40:52;101583.22;;;24.47;56.56
76024;BME280;64719;52.124;6.226;2023-07-20T12:43:20;101584.19;;;24.97;55.64
76024;BME280;64719;52.124;6.226;2023-07-20T12:45:46;101587.88;;;25.20;55.60
76024;BME280;64719;52.124;6.226;2023-07-20T12:48:13;101579.13;;;25.26;50.93
76024;BME280;64719;52.124;6.226;2023-07-20T12:50:40;101575.03;;;26.47;47.46